createdAt,value
2018-09-27T00:01:20.566Z,8.80
2018-09-27T00:03:55.312Z,8.70
2018-09-27T00:06:29.702Z,8.70
2018-09-27T00:09:04.683Z,8.80
2018-09-27T00:11:39.204Z,8.80
2018-09-27T00:14:13.923Z,8.80
2018-09-27T00:16:48.554Z,8.70
2018-09-27T00:19:23.168Z,8.70
2018-09-27T00:21:57.636Z,8.60
2018-09-27T00:24:32.204Z,8.50
2018-09-27T00:27:06.767Z,8.40
2018-09-27T00:29:41.641Z,8.40
2018-09-27T00:32:16.667Z,8.40
2018-09-27T00:34:51.083Z,8.30
2018-09-27T00:37:25.751Z,8.40
2018-09-27T00:40:00.341Z,8.40
2018-09-27T00:42:35.300Z,8.30
2018-09-27T00:45:09.872Z,8.20
2018-09-27T00:47:44.669Z,8.20
2018-09-27T00:50:19.677Z,8.10
2018-09-27T00:52:54.437Z,8.00
2018-09-27T00:55:29.316Z,7.90
2018-09-27T00:58:04.028Z,7.90
2018-09-27T01:00:39.067Z,7.90
2018-09-27T01:03:13.668Z,7.90
2018-09-27T01:05:48.418Z,7.90
2018-09-27T01:08:23.152Z,7.90
2018-09-27T01:10:57.693Z,7.80
2018-09-27T01:13:32.304Z,7.80
2018-09-27T01:16:07.200Z,7.70
2018-09-27T01:18:41.627Z,7.60
2018-09-27T01:21:16.138Z,7.50
2018-09-27T01:23:50.994Z,7.60
2018-09-27T01:26:26.207Z,7.70
2018-09-27T01:29:01.093Z,7.70
2018-09-27T01:31:36.133Z,7.70
2018-09-27T01:34:10.940Z,7.70
2018-09-27T01:36:45.943Z,7.60
2018-09-27T01:39:20.546Z,7.60
2018-09-27T01:41:55.090Z,7.50
2018-09-27T01:44:29.781Z,7.60
2018-09-27T01:47:04.429Z,7.50
2018-09-27T01:49:39.250Z,7.50
2018-09-27T01:52:14.081Z,7.50
2018-09-27T01:54:48.696Z,7.40
2018-09-27T01:57:23.401Z,7.40
2018-09-27T01:59:58.329Z,7.40
2018-09-27T02:02:33.187Z,7.40
2018-09-27T02:05:07.969Z,7.30
2018-09-27T02:07:42.831Z,7.30
2018-09-27T02:10:17.715Z,7.40
2018-09-27T02:12:52.381Z,7.30
2018-09-27T02:15:28.238Z,7.30
2018-09-27T02:18:03.001Z,7.30
2018-09-27T02:20:38.528Z,7.30
2018-09-27T02:23:13.297Z,7.20
2018-09-27T02:25:47.928Z,7.20
2018-09-27T02:28:22.788Z,7.20
2018-09-27T02:30:57.686Z,7.20
2018-09-27T02:33:32.590Z,7.10
2018-09-27T02:36:07.199Z,7.10
2018-09-27T02:38:42.130Z,7.10
2018-09-27T02:41:16.789Z,7.00
2018-09-27T02:43:51.571Z,7.00
2018-09-27T02:46:27.329Z,7.10
2018-09-27T02:49:02.158Z,7.00
2018-09-27T02:51:37.106Z,6.80
2018-09-27T02:54:11.806Z,6.70
2018-09-27T02:56:46.540Z,6.80
2018-09-27T02:59:21.135Z,6.90
2018-09-27T03:01:55.678Z,6.80
2018-09-27T03:04:30.469Z,6.80
2018-09-27T03:07:05.197Z,6.70
2018-09-27T03:09:40.477Z,6.60
2018-09-27T03:12:15.071Z,6.60
2018-09-27T03:14:49.833Z,6.60
2018-09-27T03:17:24.437Z,6.60
2018-09-27T03:19:59.402Z,6.40
2018-09-27T03:22:34.777Z,6.30
2018-09-27T03:25:09.619Z,6.30
2018-09-27T03:27:44.285Z,6.30
2018-09-27T03:30:19.196Z,6.40
2018-09-27T03:35:34.286Z,6.40
2018-09-27T03:38:09.002Z,6.40
2018-09-27T03:40:44.011Z,6.50
2018-09-27T03:43:18.825Z,6.50
2018-09-27T03:45:53.580Z,6.50
2018-09-27T03:48:28.347Z,6.50
2018-09-27T03:51:03.121Z,6.40
2018-09-27T03:53:37.999Z,6.20
2018-09-27T03:56:13.062Z,6.30
2018-09-27T03:58:47.854Z,6.30
2018-09-27T04:01:22.607Z,6.30
2018-09-27T04:03:57.433Z,6.30
2018-09-27T04:06:32.336Z,6.20
2018-09-27T04:09:08.368Z,6.00
2018-09-27T04:11:43.144Z,6.00
2018-09-27T04:14:17.791Z,6.10
2018-09-27T04:16:52.570Z,6.20
2018-09-27T04:19:27.299Z,6.20
2018-09-27T04:22:02.004Z,6.30
2018-09-27T04:24:36.847Z,6.30
2018-09-27T04:27:11.451Z,6.30
2018-09-27T04:29:46.365Z,6.30
2018-09-27T04:32:21.067Z,6.20
2018-09-27T04:34:56.951Z,5.90
2018-09-27T04:37:33.697Z,5.90
2018-09-27T04:40:08.215Z,5.90
2018-09-27T04:42:42.943Z,5.90
2018-09-27T04:45:18.231Z,6.00
2018-09-27T04:47:54.244Z,6.10
2018-09-27T04:50:28.884Z,6.10
2018-09-27T04:53:03.858Z,6.20
2018-09-27T04:55:38.665Z,6.20
2018-09-27T04:58:13.364Z,6.20
2018-09-27T05:00:48.076Z,6.20
2018-09-27T05:03:22.969Z,6.20
2018-09-27T05:05:57.768Z,6.20
2018-09-27T05:08:32.355Z,6.10
2018-09-27T05:11:07.088Z,6.10
2018-09-27T05:13:41.988Z,6.10
2018-09-27T05:16:16.908Z,6.10
2018-09-27T05:18:51.724Z,6.10
2018-09-27T05:21:26.422Z,6.00
2018-09-27T05:24:01.176Z,6.00
2018-09-27T05:26:35.941Z,5.70
2018-09-27T05:29:10.957Z,5.50
2018-09-27T05:31:45.691Z,5.50
2018-09-27T05:34:21.266Z,5.60
2018-09-27T05:36:56.217Z,5.70
2018-09-27T05:39:31.017Z,5.60
2018-09-27T05:42:05.848Z,5.50
2018-09-27T05:44:40.492Z,5.50
2018-09-27T05:47:15.444Z,5.50
2018-09-27T05:49:50.135Z,5.60
2018-09-27T05:52:25.017Z,5.60
2018-09-27T05:54:59.868Z,5.60
2018-09-27T05:57:34.561Z,5.70
2018-09-27T06:00:09.283Z,5.80
2018-09-27T06:02:44.039Z,5.80
2018-09-27T06:05:18.816Z,5.90
2018-09-27T06:07:53.695Z,5.80
2018-09-27T06:10:28.510Z,5.90
2018-09-27T06:13:03.370Z,6.10
2018-09-27T06:15:38.264Z,6.10
2018-09-27T06:18:13.417Z,6.20
2018-09-27T06:20:48.596Z,6.30
2018-09-27T06:23:23.516Z,6.40
2018-09-27T06:25:58.437Z,6.60
2018-09-27T06:28:33.270Z,6.70
2018-09-27T06:31:08.410Z,6.80
2018-09-27T06:33:43.194Z,7.10
2018-09-27T06:36:18.035Z,7.20
2018-09-27T06:38:52.816Z,7.40
2018-09-27T06:41:27.702Z,7.60
2018-09-27T06:44:02.555Z,7.80
2018-09-27T06:46:37.172Z,8.00
2018-09-27T06:49:12.079Z,8.20
2018-09-27T06:51:46.991Z,8.40
2018-09-27T06:54:21.819Z,8.50
2018-09-27T06:56:56.663Z,8.70
2018-09-27T06:59:31.481Z,8.90
2018-09-27T07:02:07.159Z,9.10
2018-09-27T07:04:41.987Z,9.20
2018-09-27T07:07:16.758Z,9.30
2018-09-27T07:09:51.454Z,9.50
2018-09-27T07:12:26.491Z,9.50
2018-09-27T07:15:01.053Z,9.40
2018-09-27T07:17:35.659Z,9.50
2018-09-27T07:20:10.483Z,9.70
2018-09-27T07:22:45.321Z,9.90
2018-09-27T07:25:20.193Z,10.10
2018-09-27T07:27:55.208Z,10.30
2018-09-27T07:30:30.103Z,10.50
2018-09-27T07:33:04.622Z,10.70
2018-09-27T07:35:39.241Z,10.90
2018-09-27T07:38:13.764Z,11.10
2018-09-27T07:40:48.110Z,11.30
2018-09-27T07:43:22.443Z,11.40
2018-09-27T07:45:57.373Z,11.60
2018-09-27T07:48:32.139Z,11.80
2018-09-27T07:51:06.541Z,12.00
2018-09-27T07:53:41.061Z,12.20
2018-09-27T07:56:15.468Z,12.40
2018-09-27T07:58:49.843Z,12.50
2018-09-27T08:01:24.444Z,12.60
2018-09-27T08:03:58.941Z,12.70
2018-09-27T08:06:33.451Z,12.90
2018-09-27T08:09:08.767Z,13.00
2018-09-27T08:11:43.153Z,13.20
2018-09-27T08:14:17.568Z,13.30
2018-09-27T08:16:52.096Z,13.40
2018-09-27T08:19:26.634Z,13.40
2018-09-27T08:22:01.304Z,13.30
2018-09-27T08:24:35.903Z,13.40
2018-09-27T08:27:10.270Z,13.50
2018-09-27T08:29:44.876Z,13.70
2018-09-27T08:32:19.425Z,13.90
2018-09-27T08:34:53.844Z,13.90
2018-09-27T08:37:28.227Z,14.00
2018-09-27T08:40:02.614Z,14.20
2018-09-27T08:42:37.155Z,14.30
2018-09-27T08:45:11.930Z,14.70
2018-09-27T08:47:46.350Z,14.80
2018-09-27T08:50:20.863Z,15.00
2018-09-27T08:52:55.323Z,15.30
2018-09-27T08:55:29.984Z,15.50
2018-09-27T08:58:04.352Z,15.70
2018-09-27T09:00:38.758Z,15.80
2018-09-27T09:03:13.443Z,16.00
2018-09-27T09:05:48.067Z,16.10
2018-09-27T09:08:22.624Z,16.20
2018-09-27T09:10:57.382Z,16.30
2018-09-27T09:13:31.791Z,16.40
2018-09-27T09:16:06.544Z,16.50
2018-09-27T09:18:40.914Z,16.60
2018-09-27T09:21:15.231Z,16.70
2018-09-27T09:23:49.563Z,16.80
2018-09-27T09:26:24.106Z,17.00
2018-09-27T09:28:58.566Z,17.10
2018-09-27T09:31:33.091Z,17.20
2018-09-27T09:34:07.643Z,17.40
2018-09-27T09:36:42.043Z,17.60
2018-09-27T09:39:16.658Z,17.70
2018-09-27T09:41:51.200Z,17.80
2018-09-27T09:44:25.824Z,17.90
2018-09-27T09:47:00.312Z,18.00
2018-09-27T09:49:34.778Z,18.00
2018-09-27T09:52:09.252Z,18.00
2018-09-27T09:54:43.734Z,18.20
2018-09-27T09:57:18.386Z,18.20
2018-09-27T09:59:52.883Z,18.30
2018-09-27T10:02:28.383Z,18.40
2018-09-27T10:05:02.843Z,18.60
2018-09-27T10:07:37.370Z,18.80
2018-09-27T10:10:11.775Z,18.60
2018-09-27T10:12:46.118Z,18.70
2018-09-27T10:15:20.483Z,18.90
2018-09-27T10:17:55.039Z,18.90
2018-09-27T10:20:29.483Z,19.00
2018-09-27T10:23:04.068Z,19.20
2018-09-27T10:25:38.592Z,19.30
2018-09-27T10:28:14.242Z,19.40
2018-09-27T10:30:48.791Z,19.60
2018-09-27T10:33:23.177Z,19.80
2018-09-27T10:35:57.748Z,19.80
2018-09-27T10:38:32.187Z,19.90
2018-09-27T10:41:06.944Z,20.00
2018-09-27T10:43:41.489Z,20.00
2018-09-27T10:46:16.083Z,20.10
2018-09-27T10:48:50.483Z,20.10
2018-09-27T10:51:24.873Z,20.20
2018-09-27T10:53:59.228Z,20.20
2018-09-27T10:56:33.507Z,20.20
2018-09-27T10:59:07.936Z,20.30
2018-09-27T11:01:42.279Z,20.60
2018-09-27T11:04:16.700Z,20.70
2018-09-27T11:06:51.027Z,20.80
2018-09-27T11:09:25.372Z,20.80
2018-09-27T11:11:59.920Z,21.10
2018-09-27T11:14:34.327Z,21.20
2018-09-27T11:17:08.691Z,21.10
2018-09-27T11:19:43.122Z,21.00
2018-09-27T11:22:17.506Z,21.00
2018-09-27T11:24:51.927Z,20.80
2018-09-27T11:27:26.370Z,20.80
2018-09-27T11:30:06.031Z,20.90
2018-09-27T11:32:43.318Z,21.00
2018-09-27T11:35:17.869Z,21.20
2018-09-27T11:37:52.291Z,21.30
2018-09-27T11:40:26.683Z,21.50
2018-09-27T11:43:01.088Z,21.70
2018-09-27T11:45:35.601Z,21.80
2018-09-27T11:48:09.941Z,22.00
2018-09-27T11:50:44.556Z,22.10
2018-09-27T11:53:18.936Z,22.20
2018-09-27T11:55:54.270Z,22.20
2018-09-27T11:58:28.784Z,22.20
2018-09-27T12:01:03.260Z,22.30
2018-09-27T12:03:37.700Z,22.40
2018-09-27T12:06:12.207Z,22.50
2018-09-27T12:08:46.609Z,22.50
2018-09-27T12:11:21.084Z,22.60
2018-09-27T12:13:55.450Z,22.60
2018-09-27T12:16:29.837Z,22.60
2018-09-27T12:19:04.172Z,22.40
2018-09-27T12:21:38.726Z,22.50
2018-09-27T12:24:13.273Z,22.60
2018-09-27T12:26:47.839Z,22.70
2018-09-27T12:29:22.352Z,22.60
2018-09-27T12:31:56.855Z,22.70
2018-09-27T12:34:31.394Z,22.80
2018-09-27T12:37:06.022Z,22.70
2018-09-27T12:39:40.512Z,22.80
2018-09-27T12:42:14.933Z,22.60
2018-09-27T12:44:49.185Z,22.40
2018-09-27T12:47:23.551Z,22.40
2018-09-27T12:49:57.928Z,22.50
2018-09-27T12:52:32.304Z,22.60
2018-09-27T12:55:06.761Z,22.60
2018-09-27T12:57:41.120Z,22.40
2018-09-27T13:00:15.608Z,22.50
2018-09-27T13:02:50.204Z,22.60
2018-09-27T13:05:24.688Z,22.80
2018-09-27T13:07:59.239Z,22.90
2018-09-27T13:10:33.672Z,23.00
2018-09-27T13:13:08.053Z,23.10
2018-09-27T13:15:42.579Z,23.00
2018-09-27T13:18:16.935Z,22.90
2018-09-27T13:20:51.380Z,22.80
2018-09-27T13:23:26.096Z,22.80
2018-09-27T13:26:00.603Z,22.90
2018-09-27T13:28:35.197Z,22.90
2018-09-27T13:31:09.797Z,23.00
2018-09-27T13:33:44.071Z,23.00
2018-09-27T13:36:18.434Z,23.00
2018-09-27T13:38:53.142Z,22.90
2018-09-27T13:41:28.528Z,23.00
2018-09-27T13:44:02.980Z,23.10
2018-09-27T13:46:37.760Z,23.10
2018-09-27T13:49:12.397Z,23.00
2018-09-27T13:51:47.041Z,23.10
2018-09-27T13:54:21.680Z,23.20
2018-09-27T13:56:56.225Z,23.10
2018-09-27T13:59:30.682Z,23.00
2018-09-27T14:02:05.152Z,23.00
2018-09-27T14:04:39.526Z,22.90
2018-09-27T14:07:13.854Z,22.80
2018-09-27T14:09:48.221Z,22.80
2018-09-27T14:12:22.775Z,22.80
2018-09-27T14:14:57.164Z,23.00
2018-09-27T14:17:31.635Z,22.70
2018-09-27T14:20:07.081Z,22.30
2018-09-27T14:22:41.420Z,22.20
2018-09-27T14:25:15.864Z,22.20
2018-09-27T14:27:50.120Z,22.30
2018-09-27T14:30:24.545Z,22.30
2018-09-27T14:32:58.905Z,22.20
2018-09-27T14:35:33.235Z,22.00
2018-09-27T14:38:07.600Z,21.90
2018-09-27T14:40:41.939Z,21.80
2018-09-27T14:43:16.234Z,21.70
2018-09-27T14:45:51.640Z,21.80
2018-09-27T14:48:26.131Z,21.90
2018-09-27T14:51:01.363Z,22.10
2018-09-27T14:53:35.785Z,22.20
2018-09-27T14:56:10.182Z,22.20
2018-09-27T14:58:44.747Z,22.10
2018-09-27T15:01:19.224Z,22.10
2018-09-27T15:03:53.833Z,22.10
2018-09-27T15:06:28.290Z,22.10
2018-09-27T15:09:02.617Z,22.00
2018-09-27T15:11:36.979Z,22.00
2018-09-27T15:14:11.364Z,22.00
2018-09-27T15:16:45.928Z,21.90
2018-09-27T15:19:20.307Z,22.00
2018-09-27T15:21:54.586Z,21.90
2018-09-27T15:24:29.101Z,21.90
2018-09-27T15:27:03.512Z,21.90
2018-09-27T15:29:37.944Z,21.90
2018-09-27T15:32:12.367Z,21.80
2018-09-27T15:34:46.779Z,21.80
2018-09-27T15:37:21.196Z,21.80
2018-09-27T15:39:55.639Z,21.90
2018-09-27T15:42:30.028Z,21.80
2018-09-27T15:45:04.460Z,21.90
2018-09-27T15:47:38.883Z,21.90
2018-09-27T15:50:13.408Z,21.80
2018-09-27T15:52:47.728Z,21.80
2018-09-27T15:55:21.995Z,21.70
2018-09-27T15:57:56.620Z,21.80
2018-09-27T16:00:31.001Z,21.90
2018-09-27T16:03:05.321Z,21.80
2018-09-27T16:05:39.634Z,21.70
2018-09-27T16:08:14.031Z,21.70
2018-09-27T16:10:48.359Z,21.70
2018-09-27T16:13:22.761Z,21.70
2018-09-27T16:15:57.312Z,21.70
2018-09-27T16:18:31.612Z,21.80
2018-09-27T16:21:06.141Z,21.80
2018-09-27T16:23:40.760Z,21.70
2018-09-27T16:26:15.057Z,21.70
2018-09-27T16:28:49.604Z,21.60
2018-09-27T16:31:24.136Z,21.50
2018-09-27T16:33:58.591Z,21.40
2018-09-27T16:36:33.539Z,21.30
2018-09-27T16:39:09.279Z,21.20
2018-09-27T16:41:43.827Z,21.10
2018-09-27T16:44:18.275Z,21.00
2018-09-27T16:46:53.632Z,20.90
2018-09-27T16:49:28.129Z,20.80
2018-09-27T16:52:02.475Z,20.60
2018-09-27T16:54:37.021Z,20.60
2018-09-27T16:57:11.592Z,20.40
2018-09-27T16:59:46.170Z,20.30
2018-09-27T17:02:20.481Z,20.20
2018-09-27T17:04:54.962Z,20.10
2018-09-27T17:07:29.304Z,20.00
2018-09-27T17:10:03.760Z,19.90
2018-09-27T17:12:39.088Z,19.70
2018-09-27T17:15:13.501Z,19.60
2018-09-27T17:17:47.892Z,19.50
2018-09-27T17:20:22.296Z,19.40
2018-09-27T17:22:56.735Z,19.30
2018-09-27T17:25:31.148Z,19.10
2018-09-27T17:28:05.472Z,19.00
2018-09-27T17:30:39.875Z,18.90
2018-09-27T17:33:14.339Z,18.80
2018-09-27T17:35:48.771Z,18.70
2018-09-27T17:38:23.234Z,18.60
2018-09-27T17:40:57.671Z,18.40
2018-09-27T17:43:32.202Z,18.20
2018-09-27T17:46:06.699Z,18.10
2018-09-27T17:48:41.043Z,17.90
2018-09-27T17:51:15.440Z,17.80
2018-09-27T17:53:49.712Z,17.70
2018-09-27T17:56:24.132Z,17.70
2018-09-27T17:58:58.805Z,17.50
2018-09-27T18:01:33.271Z,17.30
2018-09-27T18:04:07.659Z,17.20
2018-09-27T18:06:42.060Z,17.10
2018-09-27T18:09:16.494Z,17.00
2018-09-27T18:11:50.899Z,16.90
2018-09-27T18:14:25.236Z,16.80
2018-09-27T18:16:59.504Z,16.70
2018-09-27T18:19:33.780Z,16.60
2018-09-27T18:22:08.160Z,16.50
2018-09-27T18:24:42.717Z,16.40
2018-09-27T18:27:16.983Z,16.40
2018-09-27T18:29:51.336Z,16.30
2018-09-27T18:32:25.640Z,16.30
2018-09-27T18:35:01.032Z,16.20
2018-09-27T18:37:35.409Z,16.10
2018-09-27T18:40:09.800Z,16.00
2018-09-27T18:42:44.092Z,15.90
2018-09-27T18:45:18.479Z,15.90
2018-09-27T18:47:52.970Z,15.80
2018-09-27T18:50:27.308Z,15.70
2018-09-27T18:53:01.735Z,15.60
2018-09-27T18:55:36.043Z,15.50
2018-09-27T18:58:10.527Z,15.40
2018-09-27T19:00:45.994Z,15.40
2018-09-27T19:03:20.388Z,15.20
2018-09-27T19:05:54.881Z,14.90
2018-09-27T19:08:29.367Z,14.80
2018-09-27T19:11:03.906Z,14.60
2018-09-27T19:13:39.417Z,14.40
2018-09-27T19:16:13.905Z,14.30
2018-09-27T19:18:48.189Z,14.30
2018-09-27T19:21:22.765Z,14.30
2018-09-27T19:23:58.313Z,14.30
2018-09-27T19:26:32.688Z,14.20
2018-09-27T19:29:07.109Z,14.00
2018-09-27T19:31:41.520Z,13.80
2018-09-27T19:34:15.843Z,13.50
2018-09-27T19:36:50.263Z,13.30
2018-09-27T19:39:24.753Z,13.20
2018-09-27T19:41:59.107Z,13.20
2018-09-27T19:44:33.447Z,13.30
2018-09-27T19:47:07.838Z,13.40
2018-09-27T19:49:42.210Z,13.50
2018-09-27T19:52:16.689Z,13.50
2018-09-27T19:54:50.902Z,13.50
2018-09-27T19:57:25.415Z,13.60
2018-09-27T19:59:59.940Z,13.50
2018-09-27T20:02:34.433Z,13.40
2018-09-27T20:05:08.724Z,13.40
2018-09-27T20:07:43.022Z,13.40
2018-09-27T20:10:17.435Z,13.40
2018-09-27T20:12:51.686Z,13.30
2018-09-27T20:15:25.975Z,13.10
2018-09-27T20:18:00.615Z,13.00
2018-09-27T20:20:36.103Z,13.10
2018-09-27T20:23:10.605Z,13.10
2018-09-27T20:25:45.003Z,13.10
2018-09-27T20:28:19.464Z,12.90
2018-09-27T20:30:53.755Z,12.90
2018-09-27T20:33:28.107Z,12.80
2018-09-27T20:36:02.419Z,12.80
2018-09-27T20:38:36.780Z,12.90
2018-09-27T20:41:11.176Z,12.90
2018-09-27T20:43:45.699Z,12.80
2018-09-27T20:46:20.275Z,12.90
2018-09-27T20:48:56.679Z,12.80
2018-09-27T20:51:31.119Z,12.60
2018-09-27T20:54:05.709Z,12.50
2018-09-27T20:56:40.048Z,12.50
2018-09-27T20:59:14.499Z,12.50
2018-09-27T21:01:48.968Z,12.50
2018-09-27T21:04:23.384Z,12.40
2018-09-27T21:06:57.815Z,12.40
2018-09-27T21:09:32.380Z,12.40
2018-09-27T21:12:06.844Z,12.40
2018-09-27T21:14:41.327Z,12.30
2018-09-27T21:17:15.648Z,12.30
2018-09-27T21:19:50.228Z,12.20
2018-09-27T21:22:24.776Z,12.20
2018-09-27T21:24:59.221Z,12.10
2018-09-27T21:27:33.592Z,12.10
2018-09-27T21:30:07.952Z,12.10
2018-09-27T21:32:42.400Z,12.10
2018-09-27T21:35:16.796Z,12.10
2018-09-27T21:37:51.298Z,12.10
2018-09-27T21:40:25.615Z,12.00
2018-09-27T21:42:59.966Z,11.90
2018-09-27T21:45:34.347Z,11.90
2018-09-27T21:48:08.714Z,11.70
2018-09-27T21:50:42.996Z,11.70
2018-09-27T21:53:17.466Z,11.60
2018-09-27T21:55:51.807Z,11.50
2018-09-27T21:58:26.224Z,11.60
2018-09-27T22:01:00.627Z,11.70
2018-09-27T22:03:35.083Z,11.70
2018-09-27T22:06:09.611Z,11.70
2018-09-27T22:08:44.105Z,11.70
2018-09-27T22:11:18.567Z,11.50
2018-09-27T22:13:52.916Z,11.60
2018-09-27T22:16:27.224Z,11.50
2018-09-27T22:19:01.571Z,11.50
2018-09-27T22:21:36.031Z,11.40
2018-09-27T22:24:10.423Z,11.20
2018-09-27T22:26:44.773Z,11.20
2018-09-27T22:29:19.092Z,11.30
2018-09-27T22:31:53.463Z,11.30
2018-09-27T22:34:27.747Z,11.20
2018-09-27T22:37:02.103Z,11.10
2018-09-27T22:39:36.472Z,11.00
2018-09-27T22:42:10.900Z,10.90
2018-09-27T22:44:45.334Z,10.90
2018-09-27T22:47:19.648Z,10.90
2018-09-27T22:49:54.112Z,10.90
2018-09-27T22:52:28.530Z,10.90
2018-09-27T22:55:02.948Z,10.90
2018-09-27T22:57:37.306Z,10.90
2018-09-27T23:00:11.710Z,10.90
2018-09-27T23:02:45.960Z,10.90
2018-09-27T23:05:20.208Z,10.80
2018-09-27T23:07:54.795Z,10.60
2018-09-27T23:10:29.191Z,10.60
2018-09-27T23:13:03.488Z,10.70
2018-09-27T23:15:37.903Z,10.70
2018-09-27T23:18:12.211Z,10.60
2018-09-27T23:20:46.637Z,10.60
2018-09-27T23:23:21.040Z,10.60
2018-09-27T23:25:55.477Z,10.60
2018-09-27T23:28:29.772Z,10.60
2018-09-27T23:31:04.166Z,10.60
2018-09-27T23:33:38.603Z,10.60
2018-09-27T23:36:13.159Z,10.50
2018-09-27T23:38:47.565Z,10.40
2018-09-27T23:41:22.003Z,10.30
2018-09-27T23:43:56.256Z,10.30
2018-09-27T23:46:30.744Z,10.20
2018-09-27T23:49:05.272Z,10.20
2018-09-27T23:51:39.581Z,10.30
2018-09-27T23:54:14.090Z,10.30
2018-09-27T23:56:48.396Z,10.20
2018-09-27T23:59:22.855Z,10.20
